Time;durP1;ratioP1;P1;durP2;ratioP2;P2;SDS_P1;SDS_P2;PMS_P1;PMS_P2;Temp;Humidity;BMP_temperature;BMP_pressure;BME280_temperature;BME280_humidity;BME280_pressure;Samples;Min_cycle;Max_cycle;Signal;HPM_P1;HPM_P2
2024/03/05 00:00:35;;;;;;;36.93;22.70;;;;;;;7.12;80.86;95867.69;5012102;28;20199;-85
2024/03/05 00:03:02;;;;;;;32.57;21.70;;;;;;;7.06;81.13;95871.47;5012488;28;20249;-85
2024/03/05 00:05:30;;;;;;;31.67;19.67;;;;;;;6.89;81.39;95834.84;5012074;28;20214;-84
2024/03/05 00:07:57;;;;;;;35.43;21.87;;;;;;;6.98;81.11;95861.50;5012448;28;20265;-84
2024/03/05 00:10:24;;;;;;;32.93;20.47;;;;;;;7.10;80.67;95861.91;5010630;28;20210;-84
2024/03/05 00:12:50;;;;;;;31.37;21.27;;;;;;;7.23;80.38;95863.88;5011424;28;20206;-84
2024/03/05 00:15:17;;;;;;;32.37;21.10;;;;;;;7.38;79.86;95860.25;5011210;28;20206;-84
2024/03/05 00:17:44;;;;;;;35.70;22.57;;;;;;;7.09;80.09;95836.53;5011504;28;20705;-84
2024/03/05 00:20:18;;;;;;;32.97;22.07;;;;;;;7.34;79.78;95861.91;5012280;28;20234;-84
2024/03/05 00:22:46;;;;;;;30.00;20.77;;;;;;;7.36;79.59;95859.78;5012901;28;20200;-83
2024/03/05 00:25:13;;;;;;;31.50;20.87;;;;;;;7.42;79.51;95861.28;5011338;28;20281;-84
2024/03/05 00:27:40;;;;;;;30.70;21.13;;;;;;;7.46;79.29;95854.34;5012714;28;20227;-84
2024/03/05 00:30:09;;;;;;;35.77;22.37;;;;;;;7.08;79.25;95808.47;5012385;28;20208;-84
2024/03/05 00:32:37;;;;;;;35.17;22.53;;;;;;;7.46;79.31;95849.03;5011836;28;20295;-83
2024/03/05 00:35:05;;;;;;;37.03;22.17;;;;;;;7.46;78.98;95846.41;5010350;28;20315;-81
2024/03/05 00:37:31;;;;;;;33.53;22.83;;;;;;;7.44;78.79;95837.97;5011987;28;20277;-81
2024/03/05 00:39:59;;;;;;;38.47;22.97;;;;;;;7.51;78.56;95842.88;5010869;28;20203;-80
2024/03/05 00:42:26;;;;;;;38.67;22.10;;;;;;;7.58;78.38;95844.13;5012030;28;20678;-81
2024/03/05 00:44:53;;;;;;;32.50;22.50;;;;;;;7.57;78.32;95833.81;5011004;28;20199;-80
2024/03/05 00:47:20;;;;;;;30.67;20.17;;;;;;;7.42;78.71;95845.38;5011586;28;20557;-80
2024/03/05 00:49:46;;;;;;;33.00;21.77;;;;;;;7.54;78.79;95826.44;5011761;28;20265;-80
2024/03/05 00:52:14;;;;;;;35.57;22.13;;;;;;;7.65;78.28;95821.81;5010792;28;20206;-80
2024/03/05 00:54:41;;;;;;;36.67;23.67;;;;;;;7.76;77.97;95805.47;5011629;28;20235;-80
2024/03/05 00:57:09;;;;;;;34.37;22.23;;;;;;;7.84;77.77;95804.03;5011858;28;20231;-80
2024/03/05 00:59:36;;;;;;;33.00;21.83;;;;;;;7.56;77.99;95776.66;5010908;28;20192;-80
2024/03/05 01:02:03;;;;;;;40.80;23.73;;;;;;;7.73;77.85;95802.63;5015169;28;20308;-80
2024/03/05 01:04:29;;;;;;;36.90;23.60;;;;;;;7.72;77.98;95806.34;5015719;28;20552;-80
2024/03/05 01:06:57;;;;;;;34.23;22.23;;;;;;;7.52;78.42;95786.22;5015847;28;20253;-81
2024/03/05 01:09:24;;;;;;;36.37;22.83;;;;;;;7.59;78.00;95803.34;5015319;28;20206;-81
2024/03/05 01:11:53;;;;;;;34.67;21.70;;;;;;;7.57;78.64;95802.03;5016064;28;20549;-81
2024/03/05 01:14:21;;;;;;;33.93;22.83;;;;;;;7.58;77.72;95799.09;5015904;28;20290;-81
2024/03/05 01:16:47;;;;;;;34.93;20.37;;;;;;;7.49;78.13;95800.81;5015784;28;20195;-80
2024/03/05 01:19:14;;;;;;;38.17;22.90;;;;;;;7.47;78.37;95792.38;5014570;28;20219;-81
2024/03/05 01:21:42;;;;;;;37.10;23.80;;;;;;;7.39;78.45;95786.91;5014621;28;20226;-80
2024/03/05 01:24:09;;;;;;;38.57;22.63;;;;;;;7.41;78.80;95771.56;5014763;28;20231;-80
2024/03/05 01:26:37;;;;;;;35.80;22.23;;;;;;;7.26;79.66;95797.13;5015166;28;20458;-80
2024/03/05 01:29:04;;;;;;;43.83;23.53;;;;;;;6.94;80.53;95763.41;5014924;28;20241;-80
2024/03/05 01:31:33;;;;;;;36.40;23.07;;;;;;;7.22;80.21;95784.75;5014928;28;20200;-80
2024/03/05 01:34:00;;;;;;;40.43;24.57;;;;;;;7.37;79.64;95778.50;4997336;28;20212;-81
2024/03/05 01:36:27;;;;;;;32.90;23.17;;;;;;;7.54;78.84;95770.84;5015702;28;20630;-80
2024/03/05 01:38:54;;;;;;;34.00;22.17;;;;;;;7.48;78.37;95780.72;5014270;28;20223;-80
2024/03/05 01:41:21;;;;;;;36.23;21.83;;;;;;;7.43;78.75;95775.47;5015841;28;20625;-80
2024/03/05 01:43:48;;;;;;;34.50;21.67;;;;;;;7.51;78.95;95780.16;5013422;28;20195;-80
2024/03/05 01:46:17;;;;;;;37.10;22.30;;;;;;;7.40;78.09;95725.75;5015178;28;20199;-80
2024/03/05 01:48:45;;;;;;;40.13;23.23;;;;;;;7.62;78.29;95764.88;5014951;28;20551;-80
2024/03/05 01:51:14;;;;;;;33.33;20.80;;;;;;;7.53;78.79;95764.75;5029238;28;20205;-81
2024/03/05 01:53:43;;;;;;;34.37;21.87;;;;;;;7.56;78.46;95766.06;5014127;28;20208;-80
2024/03/05 01:56:11;;;;;;;34.70;21.50;;;;;;;7.54;78.67;95770.84;5014134;28;20203;-80
2024/03/05 01:58:40;;;;;;;31.37;21.37;;;;;;;7.51;78.66;95764.25;5014309;28;20234;-80
2024/03/05 02:01:07;;;;;;;33.27;22.80;;;;;;;7.37;78.56;95744.06;5014366;28;20195;-80
2024/03/05 02:03:35;;;;;;;36.03;22.50;;;;;;;7.45;78.75;95752.16;5014605;28;20281;-80
2024/03/05 02:06:06;;;;;;;31.30;22.33;;;;;;;7.64;77.81;95748.72;5014694;28;20199;-80
2024/03/05 02:08:34;;;;;;;33.50;21.17;;;;;;;7.48;78.04;95748.94;5014243;28;20199;-80
2024/03/05 02:11:02;;;;;;;32.70;22.33;;;;;;;7.52;77.98;95749.94;5013023;28;20650;-81
2024/03/05 02:13:30;;;;;;;36.20;22.40;;;;;;;7.44;77.43;95745.28;5014060;28;20203;-81
2024/03/05 02:15:56;;;;;;;36.33;22.70;;;;;;;7.35;78.48;95750.44;5014153;28;20207;-80
2024/03/05 02:18:23;;;;;;;35.93;23.73;;;;;;;7.42;78.03;95744.00;5013046;28;20278;-80
2024/03/05 02:20:50;;;;;;;34.17;21.87;;;;;;;7.55;77.23;95753.88;5013122;28;20204;-80
2024/03/05 02:23:18;;;;;;;30.77;21.30;;;;;;;7.59;76.40;95753.03;5013249;28;20203;-80
2024/03/05 02:25:45;;;;;;;43.13;24.97;;;;;;;7.51;76.94;95751.03;5013375;28;20682;-80
2024/03/05 02:28:12;;;;;;;35.50;22.53;;;;;;;7.50;77.04;95764.53;5013250;28;20207;-80
2024/03/05 02:30:40;;;;;;;30.80;20.87;;;;;;;7.34;76.85;95738.28;5013992;28;20200;-81
2024/03/05 02:33:07;;;;;;;33.70;21.57;;;;;;;7.22;77.96;95758.31;5012567;28;20578;-80
2024/03/05 02:35:34;;;;;;;33.07;21.77;;;;;;;7.22;78.54;95753.00;4997248;28;20286;-80
2024/03/05 02:38:01;;;;;;;35.00;22.80;;;;;;;7.28;78.30;95755.31;4993979;28;20223;-80
2024/03/05 02:40:29;;;;;;;36.07;22.57;;;;;;;7.27;79.12;95750.28;4994768;28;20564;-80
2024/03/05 02:42:56;;;;;;;28.37;19.70;;;;;;;7.40;78.05;95751.47;4994325;28;20207;-80
2024/03/05 02:45:22;;;;;;;36.83;22.63;;;;;;;7.30;77.87;95747.84;4994105;28;20207;-80
2024/03/05 02:47:49;;;;;;;34.07;21.60;;;;;;;7.11;78.08;95757.63;4994068;28;20574;-80
2024/03/05 02:50:19;;;;;;;37.03;21.10;;;;;;;7.39;77.89;95749.84;4995370;28;20218;-80
2024/03/05 02:52:45;;;;;;;30.50;21.27;;;;;;;7.45;77.10;95749.50;5013460;28;20231;-80
2024/03/05 02:55:13;;;;;;;31.13;22.13;;;;;;;7.41;76.79;95753.03;5014330;28;20677;-80
2024/03/05 02:57:42;;;;;;;32.43;20.63;;;;;;;7.36;77.56;95759.19;5011979;28;20223;-81
2024/03/05 03:00:13;;;;;;;36.63;22.03;;;;;;;7.34;77.42;95748.84;5013024;28;20208;-81
2024/03/05 03:02:40;;;;;;;33.53;20.77;;;;;;;7.09;78.27;95754.50;5013023;28;20282;-81
2024/03/05 03:05:07;;;;;;;34.27;21.33;;;;;;;7.00;78.47;95751.66;5013667;28;20203;-81
2024/03/05 03:07:34;;;;;;;36.93;22.17;;;;;;;6.89;78.79;95746.78;5013385;28;20199;-80
2024/03/05 03:10:01;;;;;;;28.33;19.90;;;;;;;7.00;78.49;95751.66;5013134;28;20804;-81
2024/03/05 03:12:27;;;;;;;31.57;20.27;;;;;;;7.10;77.46;95743.63;5013990;28;20207;-80
2024/03/05 03:14:55;;;;;;;33.10;20.13;;;;;;;7.11;77.06;95747.84;5011694;28;20258;-81
2024/03/05 03:17:22;;;;;;;33.17;22.23;;;;;;;6.72;77.30;95742.75;5012990;28;20200;-80
2024/03/05 03:19:49;;;;;;;31.90;21.90;;;;;;;6.87;77.47;95752.38;5013021;28;20226;-81
2024/03/05 03:22:15;;;;;;;32.10;21.37;;;;;;;7.10;76.63;95740.19;5011457;28;20210;-81
2024/03/05 03:24:43;;;;;;;36.33;23.60;;;;;;;6.78;76.92;95720.47;5012800;28;20289;-81
2024/03/05 03:27:11;;;;;;;35.77;23.77;;;;;;;6.72;78.03;95747.25;5013415;28;20259;-80
2024/03/05 03:29:40;;;;;;;34.33;22.17;;;;;;;6.71;77.99;95732.47;5011829;28;20207;-80
2024/03/05 03:32:11;;;;;;;34.67;22.10;;;;;;;6.88;78.18;95746.00;5012250;28;20627;-81
2024/03/05 03:34:40;;;;;;;34.10;20.50;;;;;;;6.73;78.38;95749.59;5011629;28;20252;-82
2024/03/05 03:37:06;;;;;;;35.80;22.57;;;;;;;6.57;78.97;95748.97;5012670;28;20195;-82
2024/03/05 03:39:33;;;;;;;37.40;22.03;;;;;;;6.68;79.01;95746.25;5012602;28;20701;-81
2024/03/05 03:42:00;;;;;;;29.37;19.47;;;;;;;6.88;78.24;95735.41;5012847;28;20555;-82
2024/03/05 03:44:27;;;;;;;34.47;21.67;;;;;;;7.02;77.57;95738.19;5013172;28;20200;-82
2024/03/05 03:46:54;;;;;;;33.53;20.27;;;;;;;6.79;78.81;95735.25;5013266;28;20203;-82
2024/03/05 03:49:24;;;;;;;32.10;21.50;;;;;;;6.76;79.76;95737.69;5012346;28;20214;-82
2024/03/05 03:51:52;;;;;;;33.83;20.97;;;;;;;6.54;79.16;95740.81;5012422;28;20621;-81
2024/03/05 03:54:18;;;;;;;30.33;20.07;;;;;;;6.62;78.72;95753.44;5012190;28;20265;-81
2024/03/05 03:56:45;;;;;;;33.63;20.27;;;;;;;6.73;78.71;95740.88;5012285;28;20206;-82
2024/03/05 03:59:13;;;;;;;46.77;30.90;;;;;;;6.91;77.86;95737.50;5012155;28;20223;-82
2024/03/05 04:01:40;;;;;;;45.37;32.03;;;;;;;6.88;77.88;95732.78;5012206;28;20238;-82
2024/03/05 04:04:06;;;;;;;69.73;39.17;;;;;;;6.73;78.32;95727.66;5010656;28;20199;-82
2024/03/05 04:06:34;;;;;;;42.27;27.47;;;;;;;6.40;78.65;95737.28;5011740;28;20208;-82
2024/03/05 04:09:03;;;;;;;33.17;21.10;;;;;;;6.30;78.49;95741.59;5012078;28;20547;-82
2024/03/05 04:11:29;;;;;;;30.10;20.07;;;;;;;6.34;78.40;95734.69;5012374;28;20202;-82
2024/03/05 04:13:56;;;;;;;31.13;21.13;;;;;;;6.42;77.93;95738.56;5011985;28;20200;-82
2024/03/05 04:16:23;;;;;;;31.50;19.97;;;;;;;6.36;77.99;95735.19;5012090;28;20674;-82
2024/03/05 04:18:50;;;;;;;28.80;20.60;;;;;;;6.20;78.26;95762.84;5012248;28;20604;-82
2024/03/05 04:21:17;;;;;;;29.63;20.57;;;;;;;6.09;78.72;95741.00;5011918;28;20230;-82
2024/03/05 04:23:45;;;;;;;31.80;20.27;;;;;;;6.13;78.55;95746.53;5012390;28;20614;-83
2024/03/05 04:26:14;;;;;;;29.13;18.77;;;;;;;6.25;77.79;95739.00;5010831;28;20231;-86
2024/03/05 04:28:52;;;;;;;27.83;17.93;;;;;;;5.95;78.06;95734.78;5011857;28;20670;-85
2024/03/05 04:31:20;;;;;;;29.37;17.47;;;;;;;5.65;78.35;95667.13;5010592;28;20203;-82
2024/03/05 04:33:47;;;;;;;26.23;18.83;;;;;;;6.19;78.65;95736.69;5012027;28;20679;-82
2024/03/05 04:36:15;;;;;;;28.73;19.80;;;;;;;6.35;77.81;95746.84;5020111;28;20214;-83
2024/03/05 04:38:43;;;;;;;40.40;31.40;;;;;;;5.96;78.21;95733.69;5015824;28;20302;-85
2024/03/05 04:41:13;;;;;;;32.87;21.43;;;;;;;5.60;79.93;95743.72;5014673;28;20206;-86
2024/03/05 04:43:40;;;;;;;33.60;25.17;;;;;;;5.63;79.71;95743.97;5016631;28;20615;-86
2024/03/05 04:46:09;;;;;;;84.87;65.93;;;;;;;5.69;79.52;95743.94;5016065;28;20206;-85
2024/03/05 04:48:36;;;;;;;55.10;40.67;;;;;;;5.68;80.11;95732.59;5016554;28;20632;-83
2024/03/05 04:51:03;;;;;;;43.93;30.23;;;;;;;5.72;80.07;95732.81;5014295;28;20195;-83
2024/03/05 04:53:30;;;;;;;26.13;18.17;;;;;;;5.74;79.32;95733.34;5015762;28;20719;-82
2024/03/05 04:55:57;;;;;;;28.30;20.97;;;;;;;5.76;79.28;95754.97;5016024;28;20625;-83
2024/03/05 04:58:25;;;;;;;30.57;19.40;;;;;;;5.69;80.42;95749.22;5015938;28;20642;-83
2024/03/05 05:00:52;;;;;;;29.37;18.43;;;;;;;5.74;80.04;95751.81;5009032;28;20243;-82
2024/03/05 05:03:19;;;;;;;26.23;19.00;;;;;;;5.83;79.68;95748.31;4996334;28;20215;-83
2024/03/05 05:05:46;;;;;;;27.53;19.13;;;;;;;5.85;79.96;95745.41;5021962;28;20203;-82
2024/03/05 05:08:13;;;;;;;34.10;19.80;;;;;;;5.89;79.64;95749.84;5021488;28;20203;-82
2024/03/05 05:10:40;;;;;;;29.53;19.47;;;;;;;6.00;79.24;95750.59;5010801;28;20200;-83
2024/03/05 05:13:08;;;;;;;29.63;18.23;;;;;;;6.00;79.33;95739.22;5002361;28;20308;-83
2024/03/05 05:15:36;;;;;;;27.87;18.63;;;;;;;5.88;79.70;95742.19;5014893;28;20199;-84
2024/03/05 05:18:04;;;;;;;29.00;18.27;;;;;;;5.79;80.30;95743.88;5009915;28;20546;-84
2024/03/05 05:20:31;;;;;;;31.13;18.90;;;;;;;5.94;79.43;95743.78;4999461;28;20204;-85
2024/03/05 05:22:58;;;;;;;27.70;18.37;;;;;;;5.80;79.74;95734.88;5036126;28;20646;-83
2024/03/05 05:25:25;;;;;;;35.43;21.60;;;;;;;5.83;80.31;95735.09;5035131;28;20202;-85
2024/03/05 05:27:52;;;;;;;30.00;18.97;;;;;;;5.95;80.16;95740.06;5035465;28;20215;-85
2024/03/05 05:30:21;;;;;;;36.57;21.97;;;;;;;5.84;79.67;95698.91;5024039;28;20218;-85
2024/03/05 05:32:49;;;;;;;35.20;21.03;;;;;;;6.16;79.31;95731.94;5014569;28;20227;-84
2024/03/05 05:35:16;;;;;;;33.47;23.53;;;;;;;6.05;79.38;95715.44;5014933;28;20557;-85
2024/03/05 05:37:44;;;;;;;38.57;25.73;;;;;;;5.99;79.35;95740.28;5013534;28;20204;-85
2024/03/05 05:40:13;;;;;;;37.07;22.87;;;;;;;5.46;80.47;95684.69;5014295;28;20402;-87
2024/03/05 05:42:40;;;;;;;35.23;25.50;;;;;;;5.93;80.12;95734.28;4996177;28;20199;-87
2024/03/05 05:45:11;;;;;;;37.47;25.83;;;;;;;6.01;80.04;95722.34;5028306;28;20198;-86
2024/03/05 05:47:42;;;;;;;37.57;24.50;;;;;;;6.09;79.97;95719.88;5014466;28;20195;-86
2024/03/05 05:50:18;;;;;;;43.50;26.93;;;;;;;6.17;80.44;95726.41;5014749;28;20210;-86
2024/03/05 05:52:46;;;;;;;31.17;23.17;;;;;;;6.18;80.78;95727.97;5018387;28;20198;-85
2024/03/05 05:55:15;;;;;;;31.50;21.53;;;;;;;6.16;80.44;95722.19;5015464;28;20209;-85
2024/03/05 05:57:44;;;;;;;34.57;23.40;;;;;;;6.32;80.67;95722.84;5013915;28;20678;-85
2024/03/05 06:00:22;;;;;;;28.57;20.77;;;;;;;6.34;79.72;95728.59;5013186;28;20261;-85
2024/03/05 06:02:51;;;;;;;34.80;21.93;;;;;;;6.31;80.03;95745.84;5013121;28;20207;-85
2024/03/05 06:05:20;;;;;;;31.20;20.20;;;;;;;6.38;79.92;95733.06;5012883;28;20289;-85
2024/03/05 06:07:46;;;;;;;34.77;21.67;;;;;;;6.16;80.94;95729.31;5013205;28;20231;-85
2024/03/05 06:10:18;;;;;;;32.23;19.73;;;;;;;6.36;80.83;95727.28;5013371;28;20203;-84
2024/03/05 06:12:45;;;;;;;32.73;20.27;;;;;;;6.60;80.07;95734.44;5012378;28;20206;-85
2024/03/05 06:15:13;;;;;;;27.17;18.80;;;;;;;6.77;79.25;95712.81;5012590;28;20219;-84
2024/03/05 06:17:40;;;;;;;30.53;20.13;;;;;;;6.70;79.48;95710.53;5013167;28;20266;-85
2024/03/05 06:20:10;;;;;;;28.40;20.03;;;;;;;6.90;79.01;95717.44;5012937;28;20223;-86
2024/03/05 06:22:38;;;;;;;30.60;19.63;;;;;;;7.04;78.53;95715.63;5013430;28;20615;-84
2024/03/05 06:25:08;;;;;;;28.57;18.73;;;;;;;6.81;79.24;95705.88;5013251;28;20735;-85
2024/03/05 06:27:36;;;;;;;28.57;18.80;;;;;;;6.86;79.37;95709.25;5002084;28;20242;-85
2024/03/05 06:30:07;;;;;;;33.37;20.50;;;;;;;7.03;78.92;95703.50;5013097;28;20203;-84
2024/03/05 06:32:37;;;;;;;34.20;20.07;;;;;;;7.23;77.58;95715.66;5001518;28;20223;-84
2024/03/05 06:35:05;;;;;;;29.83;20.77;;;;;;;7.29;77.43;95714.53;5012951;28;20208;-84
2024/03/05 06:37:32;;;;;;;30.20;20.20;;;;;;;7.55;76.66;95714.94;5013549;28;20231;-84
2024/03/05 06:40:06;;;;;;;31.87;21.10;;;;;;;7.83;76.36;95717.72;5012670;28;20667;-84
2024/03/05 06:42:33;;;;;;;26.13;18.63;;;;;;;7.97;76.25;95709.78;5012555;28;20666;-84
2024/03/05 06:45:05;;;;;;;26.10;18.77;;;;;;;8.32;75.52;95714.50;5012784;28;20286;-83
2024/03/05 06:47:38;;;;;;;31.57;19.00;;;;;;;8.20;76.42;95716.03;5024872;28;20689;-84
2024/03/05 06:50:08;;;;;;;35.37;19.30;;;;;;;8.01;76.95;95714.22;5012438;28;20637;-84
2024/03/05 06:58:07;;;;;;;38.73;21.83;;;;;;;7.88;77.65;95714.19;5012187;28;20215;-83
2024/03/05 07:00:34;;;;;;;36.87;21.37;;;;;;;7.86;78.32;95714.50;5012069;28;20323;-84
2024/03/05 07:03:04;;;;;;;42.33;23.43;;;;;;;7.47;80.30;95712.97;5018037;28;20202;-85
2024/03/05 07:05:32;;;;;;;46.50;22.90;;;;;;;7.63;80.12;95724.09;5018623;28;20581;-84
2024/03/05 07:08:00;;;;;;;37.80;21.80;;;;;;;7.62;79.71;95722.50;5012504;28;20203;-84
2024/03/05 07:10:31;;;;;;;40.83;22.90;;;;;;;7.62;80.16;95721.72;5012529;28;20203;-84
2024/03/05 07:12:58;;;;;;;41.83;22.67;;;;;;;7.88;79.29;95722.91;5012232;28;20218;-84
2024/03/05 07:15:25;;;;;;;42.80;24.10;;;;;;;7.98;78.90;95722.75;5011933;28;20192;-83
2024/03/05 07:17:51;;;;;;;38.53;21.17;;;;;;;8.41;77.30;95724.44;5012421;28;20203;-84
2024/03/05 07:20:22;;;;;;;41.63;23.80;;;;;;;9.07;75.28;95726.59;5011251;28;20234;-83
2024/03/05 07:22:51;;;;;;;42.77;24.27;;;;;;;9.33;73.81;95723.41;5012475;28;20203;-84
2024/03/05 07:25:18;;;;;;;37.57;22.30;;;;;;;9.34;73.06;95722.34;5011802;28;20677;-85
2024/03/05 07:27:48;;;;;;;41.80;22.23;;;;;;;9.04;73.41;95699.88;5012235;28;20619;-84
2024/03/05 07:30:16;;;;;;;32.60;19.87;;;;;;;8.82;72.90;95722.56;5011665;28;20195;-85
2024/03/05 07:32:45;;;;;;;45.90;23.53;;;;;;;9.02;73.73;95721.41;5012742;28;20286;-84
2024/03/05 07:35:12;;;;;;;38.47;23.07;;;;;;;9.13;73.21;95719.31;5011878;28;20203;-84
2024/03/05 07:37:42;;;;;;;36.60;23.63;;;;;;;9.43;71.51;95701.94;5012174;28;20203;-83
2024/03/05 07:40:16;;;;;;;35.13;21.43;;;;;;;9.96;70.43;95730.47;5012073;28;20314;-83
2024/03/05 07:42:48;;;;;;;36.47;22.97;;;;;;;10.04;69.31;95719.09;5011282;28;20196;-83
2024/03/05 07:45:16;;;;;;;37.47;22.33;;;;;;;10.21;69.10;95717.63;5010962;28;20235;-84
2024/03/05 07:47:43;;;;;;;36.73;22.90;;;;;;;10.33;68.62;95709.91;5012067;28;20199;-83
2024/03/05 07:50:12;;;;;;;35.63;22.20;;;;;;;10.53;67.01;95705.91;5011910;28;20238;-82
2024/03/05 07:52:39;;;;;;;38.03;23.67;;;;;;;10.18;69.11;95705.75;5011557;28;20204;-83
2024/03/05 07:55:09;;;;;;;35.73;22.27;;;;;;;10.70;67.41;95702.56;5011817;28;20199;-83
2024/03/05 07:57:37;;;;;;;36.70;22.13;;;;;;;11.10;65.37;95694.50;5011330;28;20249;-83
2024/03/05 08:00:08;;;;;;;36.33;23.40;;;;;;;11.45;63.55;95703.31;5011450;28;20694;-83
2024/03/05 08:02:37;;;;;;;36.57;20.83;;;;;;;11.93;63.19;95705.09;5011371;28;20284;-82
2024/03/05 08:05:05;;;;;;;29.47;20.30;;;;;;;12.14;61.47;95707.88;5011349;28;20209;-83
2024/03/05 08:07:34;;;;;;;31.77;19.77;;;;;;;11.63;63.01;95704.91;5011373;28;20282;-83
2024/03/05 08:10:05;;;;;;;38.40;22.77;;;;;;;11.79;62.83;95715.88;5011676;28;20286;-84
2024/03/05 08:12:32;;;;;;;32.73;20.63;;;;;;;11.52;64.00;95711.66;5011092;28;20199;-83
2024/03/05 08:14:59;;;;;;;33.77;24.13;;;;;;;11.61;64.26;95712.41;5011336;28;20740;-83
2024/03/05 08:17:29;;;;;;;34.53;23.30;;;;;;;11.38;64.34;95708.34;5011576;28;20571;-84
2024/03/05 08:19:56;;;;;;;36.87;24.20;;;;;;;11.67;64.34;95707.72;5011691;28;20230;-83
2024/03/05 08:22:23;;;;;;;30.17;20.70;;;;;;;11.84;63.52;95706.97;5010988;28;20199;-83
2024/03/05 08:24:50;;;;;;;33.17;22.40;;;;;;;11.18;65.97;95705.19;5014061;28;20264;-83
2024/03/05 08:27:17;;;;;;;35.33;20.50;;;;;;;11.00;65.76;95706.25;5011095;28;20223;-83
2024/03/05 08:29:45;;;;;;;36.73;21.53;;;;;;;10.73;67.16;95702.72;5011578;28;20273;-84
2024/03/05 08:32:12;;;;;;;27.57;19.90;;;;;;;10.74;67.47;95706.19;5011144;28;20630;-83
2024/03/05 08:34:40;;;;;;;26.23;20.73;;;;;;;10.57;67.26;95704.25;5011142;28;20210;-84
2024/03/05 08:37:08;;;;;;;32.73;22.03;;;;;;;10.32;68.55;95707.56;4998829;28;20199;-83
2024/03/05 08:39:36;;;;;;;31.50;20.10;;;;;;;10.08;69.24;95713.19;5011654;28;20279;-84
2024/03/05 08:42:04;;;;;;;31.07;18.67;;;;;;;9.73;70.75;95713.75;5022631;28;20197;-84
2024/03/05 08:44:31;;;;;;;30.73;19.33;;;;;;;9.64;71.64;95712.09;5010912;28;20207;-85
2024/03/05 08:46:58;;;;;;;27.87;19.33;;;;;;;9.77;71.63;95719.25;5018156;28;20588;-84
2024/03/05 08:49:25;;;;;;;31.07;20.43;;;;;;;9.83;71.68;95718.03;5015792;28;20283;-85
2024/03/05 08:51:54;;;;;;;35.33;24.03;;;;;;;9.77;71.82;95717.38;5012053;28;20283;-86
2024/03/05 08:54:21;;;;;;;38.27;22.93;;;;;;;9.83;71.29;95702.06;5011111;28;20200;-84
2024/03/05 08:56:48;;;;;;;36.37;24.13;;;;;;;10.01;70.86;95716.28;5011057;28;20250;-84
2024/03/05 08:59:15;;;;;;;33.47;22.33;;;;;;;9.95;71.12;95720.94;5010664;28;20208;-84
2024/03/05 09:01:42;;;;;;;37.97;23.20;;;;;;;9.84;71.76;95719.59;5011286;28;20204;-84
2024/03/05 09:04:09;;;;;;;36.77;24.10;;;;;;;9.78;72.11;95724.25;5010634;28;20199;-83
2024/03/05 09:06:36;;;;;;;39.83;24.23;;;;;;;9.95;71.54;95731.56;5010866;28;20663;-83
2024/03/05 09:09:06;;;;;;;39.80;22.60;;;;;;;9.79;71.64;95727.69;5010668;28;20646;-84
2024/03/05 09:11:35;;;;;;;35.63;23.57;;;;;;;9.63;72.55;95727.25;5011220;28;20207;-84
2024/03/05 09:14:02;;;;;;;34.13;22.60;;;;;;;9.43;73.03;95719.75;5010522;28;20294;-84
2024/03/05 09:16:30;;;;;;;31.20;22.23;;;;;;;9.45;73.37;95718.38;5010847;28;20649;-84
2024/03/05 09:18:59;;;;;;;35.90;22.87;;;;;;;9.56;73.11;95726.88;5010118;28;20200;-84
2024/03/05 09:21:26;;;;;;;32.37;21.23;;;;;;;9.53;72.96;95724.84;5010774;28;20255;-84
2024/03/05 09:23:53;;;;;;;29.73;20.30;;;;;;;9.49;73.11;95722.00;5014893;28;20227;-84
2024/03/05 09:26:21;;;;;;;32.07;20.97;;;;;;;9.46;73.24;95719.94;5014248;28;20587;-85
2024/03/05 09:28:48;;;;;;;32.33;20.40;;;;;;;9.26;73.67;95725.69;5014525;28;20203;-87
2024/03/05 09:31:16;;;;;;;28.07;18.40;;;;;;;9.06;74.26;95716.28;5014353;28;20199;-87
2024/03/05 09:33:43;;;;;;;31.47;20.70;;;;;;;9.03;74.33;95730.94;5014686;28;20216;-86
2024/03/05 09:36:10;;;;;;;29.27;18.83;;;;;;;8.94;74.46;95730.03;5014214;28;20203;-87
2024/03/05 09:38:37;;;;;;;27.17;19.73;;;;;;;9.16;74.08;95750.56;5029333;28;20666;-86
2024/03/05 09:41:05;;;;;;;34.57;19.90;;;;;;;9.30;73.51;95730.09;5014157;28;20230;-84
2024/03/05 09:43:34;;;;;;;28.80;18.17;;;;;;;9.26;73.32;95728.34;5000491;28;20195;-84
2024/03/05 09:46:04;;;;;;;21.97;15.70;;;;;;;8.96;73.46;95705.88;5014108;28;20238;-87
2024/03/05 09:48:33;;;;;;;30.17;19.57;;;;;;;9.17;73.61;95732.78;5014025;28;20210;-87
2024/03/05 09:51:00;;;;;;;33.13;19.00;;;;;;;8.96;74.36;95722.59;5013964;28;20195;-87
2024/03/05 09:53:29;;;;;;;28.33;19.13;;;;;;;9.14;74.13;95730.72;5022327;28;20191;-88
2024/03/05 09:55:56;;;;;;;25.43;17.17;;;;;;;8.94;73.90;95708.03;5018672;28;20277;-88
2024/03/05 09:58:35;;;;;;;25.33;18.17;;;;;;;8.85;74.49;95739.78;5014287;28;20199;-86
2024/03/05 10:01:05;;;;;;;32.63;22.30;;;;;;;9.01;74.61;95724.34;5013689;28;20250;-85
2024/03/05 10:03:34;;;;;;;30.33;18.57;;;;;;;9.16;73.68;95723.25;5013583;28;20745;-84
2024/03/05 10:06:01;;;;;;;23.63;16.53;;;;;;;9.01;73.62;95708.41;5013558;28;20287;-84
2024/03/05 10:08:28;;;;;;;30.53;19.13;;;;;;;9.11;74.34;95726.81;5013597;28;20662;-85
2024/03/05 10:11:00;;;;;;;31.10;18.70;;;;;;;9.03;74.44;95724.84;5013482;28;20200;-85
2024/03/05 10:13:31;;;;;;;28.50;19.97;;;;;;;9.02;74.22;95716.09;5013733;28;20199;-84
2024/03/05 10:16:18;;;;;;;31.23;19.37;;;;;;;9.09;74.29;95728.16;5013516;28;20257;-85
2024/03/05 10:18:46;;;;;;;29.27;19.83;;;;;;;9.09;73.98;95717.56;5013381;28;20204;-84
2024/03/05 10:21:18;;;;;;;26.50;19.00;;;;;;;9.13;73.87;95726.50;5013239;28;20572;-84
2024/03/05 10:23:49;;;;;;;26.67;20.10;;;;;;;8.98;73.96;95720.44;5013559;28;20246;-84
2024/03/05 10:26:24;;;;;;;29.57;18.77;;;;;;;8.56;74.40;95661.31;5013402;28;20766;-84
2024/03/05 10:28:51;;;;;;;25.27;18.57;;;;;;;8.92;74.78;95718.94;5013838;28;20568;-84
2024/03/05 10:31:23;;;;;;;26.23;19.90;;;;;;;8.71;75.47;95726.53;5013540;28;20622;-84
2024/03/05 10:33:53;;;;;;;29.23;21.10;;;;;;;8.27;75.70;95685.41;5012342;28;20626;-87
2024/03/05 10:36:30;;;;;;;54.23;31.87;;;;;;;8.53;76.08;95727.41;5012811;28;20203;-86
2024/03/05 10:38:57;;;;;;;57.83;37.67;;;;;;;8.58;75.68;95728.09;5012782;28;20203;-87
2024/03/05 10:41:31;;;;;;;36.77;23.07;;;;;;;8.62;75.62;95724.84;5012793;28;20597;-87
2024/03/05 10:44:00;;;;;;;33.00;21.77;;;;;;;8.67;75.93;95735.34;5013334;28;20207;-87
2024/03/05 10:46:30;;;;;;;37.30;22.93;;;;;;;8.74;75.38;95720.63;5012868;28;20203;-86
2024/03/05 10:49:03;;;;;;;32.93;19.77;;;;;;;8.71;75.70;95736.34;5013406;28;20207;-87
2024/03/05 10:51:32;;;;;;;42.13;26.17;;;;;;;8.85;75.55;95725.75;5028469;28;20231;-86
2024/03/05 10:54:02;;;;;;;40.53;25.93;;;;;;;8.76;75.91;95728.31;5013018;28;20199;-86
2024/03/05 10:56:30;;;;;;;37.37;26.17;;;;;;;8.73;76.11;95726.22;5019392;28;20210;-87
2024/03/05 11:01:46;;;;;;;33.90;22.80;;;;;;;8.70;75.93;95721.50;5024667;28;20233;-87
2024/03/05 11:04:15;;;;;;;33.67;21.23;;;;;;;8.77;75.74;95730.66;5026125;28;20698;-87
2024/03/05 11:06:42;;;;;;;27.23;19.93;;;;;;;8.95;75.53;95725.53;5012992;28;20207;-87
2024/03/05 11:09:10;;;;;;;25.47;16.87;;;;;;;8.87;75.51;95727.03;5012364;28;20203;-87
2024/03/05 11:11:39;;;;;;;30.90;20.50;;;;;;;8.82;76.19;95725.22;5012980;28;20195;-87
2024/03/05 11:14:10;;;;;;;25.83;18.37;;;;;;;9.04;75.10;95721.88;5016336;28;20206;-87
2024/03/05 11:16:37;;;;;;;33.00;21.10;;;;;;;8.83;75.18;95675.63;5020548;28;20203;-86
2024/03/05 11:19:10;;;;;;;26.63;22.13;;;;;;;9.15;75.20;95719.03;5012467;28;20270;-86
2024/03/05 11:21:41;;;;;;;31.13;22.00;;;;;;;9.21;74.49;95715.16;4999953;28;20227;-86
2024/03/05 11:24:08;;;;;;;24.20;18.70;;;;;;;9.06;75.46;95711.78;4998602;28;20203;-86
2024/03/05 11:26:36;;;;;;;24.70;18.33;;;;;;;9.10;75.85;95711.16;5012153;28;20611;-86
2024/03/05 11:29:07;;;;;;;27.30;17.33;;;;;;;9.01;75.51;95708.41;5012189;28;20206;-87
2024/03/05 11:31:34;;;;;;;24.57;18.17;;;;;;;9.01;75.40;95679.22;5012299;28;20654;-87
2024/03/05 11:34:13;;;;;;;23.43;16.67;;;;;;;9.40;74.79;95697.22;5000734;28;20605;-87
2024/03/05 11:36:41;;;;;;;24.77;17.40;;;;;;;9.52;73.68;95694.03;5012200;28;20203;-86